Time;durP1;ratioP1;P1;durP2;ratioP2;P2;SDS_P1;SDS_P2;PMS_P1;PMS_P2;Temp;Humidity;BMP_temperature;BMP_pressure;BME280_temperature;BME280_humidity;BME280_pressure;Samples;Min_cycle;Max_cycle;Signal;HPM_P1;HPM_P2
2022/08/15 00:00:09;;;;;;;39.17;11.98;;;;;;;;;;5019624;28;20349;-61
2022/08/15 00:02:36;;;;;;;35.67;11.52;;;;;;;;;;5009011;28;20041;-56
2022/08/15 00:05:04;;;;;;;38.20;12.07;;;;;;;;;;5011519;28;20033;-61
2022/08/15 00:07:30;;;;;;;35.80;12.00;;;;;;;;;;5024540;28;20034;-60
2022/08/15 00:09:57;;;;;;;33.72;10.57;;;;;;;;;;5027190;28;20028;-59
2022/08/15 00:12:25;;;;;;;35.75;10.73;;;;;;;;;;5027563;28;20033;-59
2022/08/15 00:14:52;;;;;;;34.20;10.88;;;;;;;;;;5028201;28;20041;-59
2022/08/15 00:17:20;;;;;;;37.13;10.60;;;;;;;;;;5022322;28;20030;-60
2022/08/15 00:19:47;;;;;;;27.02;10.10;;;;;;;;;;5028812;28;20119;-61
2022/08/15 00:22:17;;;;;;;33.97;10.30;;;;;;;;;;5013163;28;20133;-59
2022/08/15 00:24:46;;;;;;;30.17;9.65;;;;;;;;;;5011416;28;20030;-60
2022/08/15 00:27:13;;;;;;;29.35;10.98;;;;;;;;;;5010744;28;20606;-58
2022/08/15 00:29:41;;;;;;;29.80;9.50;;;;;;;;;;5026484;28;20471;-59
2022/08/15 00:32:10;;;;;;;32.42;10.35;;;;;;;;;;5029676;28;20041;-60
2022/08/15 00:34:37;;;;;;;39.92;18.70;;;;;;;;;;5030974;28;20040;-60
2022/08/15 00:37:05;;;;;;;57.63;31.52;;;;;;;;;;5031033;28;20030;-61
2022/08/15 00:39:33;;;;;;;69.45;40.25;;;;;;;;;;5032121;28;20475;-62
2022/08/15 00:42:01;;;;;;;72.45;46.08;;;;;;;;;;5033754;28;20137;-61
2022/08/15 00:44:32;;;;;;;68.82;45.33;;;;;;;;;;5033717;28;20040;-62
2022/08/15 00:47:01;;;;;;;91.78;55.05;;;;;;;;;;5034116;28;20095;-61
2022/08/15 00:49:29;;;;;;;100.72;62.60;;;;;;;;;;5033440;28;20029;-63
2022/08/15 00:51:59;;;;;;;98.97;59.25;;;;;;;;;;5033927;28;20030;-62
2022/08/15 00:54:28;;;;;;;85.10;53.13;;;;;;;;;;5034009;28;20028;-62
2022/08/15 00:57:06;;;;;;;95.57;56.55;;;;;;;;;;5021837;28;20025;-62
2022/08/15 00:59:36;;;;;;;87.10;57.38;;;;;;;;;;5013780;28;20026;-62
2022/08/15 01:02:06;;;;;;;83.53;53.78;;;;;;;;;;5013179;28;20136;-63
2022/08/15 01:04:34;;;;;;;80.60;51.08;;;;;;;;;;5013339;28;20165;-62
2022/08/15 01:07:01;;;;;;;77.65;49.53;;;;;;;;;;5018411;28;20021;-61
2022/08/15 01:09:29;;;;;;;85.78;49.72;;;;;;;;;;5034637;28;20029;-62
2022/08/15 01:12:08;;;;;;;84.07;47.10;;;;;;;;;;5034441;28;20108;-64
2022/08/15 01:14:36;;;;;;;70.72;44.10;;;;;;;;;;5034874;28;20383;-63
2022/08/15 01:17:04;;;;;;;70.85;42.38;;;;;;;;;;5034049;28;20029;-63
2022/08/15 01:19:37;;;;;;;65.50;41.50;;;;;;;;;;5034255;28;20033;-63
2022/08/15 01:22:10;;;;;;;69.70;41.55;;;;;;;;;;5034382;28;20057;-63
2022/08/15 01:24:52;;;;;;;63.83;39.00;;;;;;;;;;5023556;28;20495;-62
2022/08/15 01:27:21;;;;;;;54.22;36.28;;;;;;;;;;5013255;28;20054;-64
2022/08/15 01:29:49;;;;;;;57.22;37.03;;;;;;;;;;5013281;28;20029;-63
2022/08/15 01:32:16;;;;;;;57.75;34.88;;;;;;;;;;5022927;28;20033;-63
2022/08/15 01:34:43;;;;;;;59.03;33.60;;;;;;;;;;5028294;28;20035;-63
2022/08/15 01:37:10;;;;;;;58.53;34.50;;;;;;;;;;5029307;28;20671;-64
2022/08/15 01:39:46;;;;;;;57.22;33.33;;;;;;;;;;5030888;28;20104;-63
2022/08/15 01:42:22;;;;;;;52.67;31.85;;;;;;;;;;5015007;28;20495;-63
2022/08/15 01:44:53;;;;;;;51.08;32.83;;;;;;;;;;5012923;28;20025;-63
2022/08/15 01:47:26;;;;;;;50.40;30.45;;;;;;;;;;5013205;28;20482;-62
2022/08/15 01:50:01;;;;;;;44.72;29.58;;;;;;;;;;5016418;28;20521;-64
2022/08/15 01:52:32;;;;;;;45.13;27.42;;;;;;;;;;5012061;28;20042;-63
2022/08/15 01:55:02;;;;;;;46.30;27.50;;;;;;;;;;5021027;28;20026;-62
2022/08/15 01:57:29;;;;;;;40.92;25.90;;;;;;;;;;5013445;28;20476;-61
2022/08/15 01:59:57;;;;;;;42.10;24.27;;;;;;;;;;5011144;28;20022;-61
2022/08/15 02:02:25;;;;;;;40.08;24.80;;;;;;;;;;5012415;28;20018;-62
2022/08/15 02:04:52;;;;;;;37.67;24.10;;;;;;;;;;5012198;28;20041;-62
2022/08/15 02:07:21;;;;;;;33.58;22.17;;;;;;;;;;5012407;28;20026;-63
2022/08/15 02:09:49;;;;;;;40.92;22.25;;;;;;;;;;5012726;28;20028;-62
2022/08/15 02:12:17;;;;;;;42.42;21.52;;;;;;;;;;5012272;28;20037;-62
2022/08/15 02:14:45;;;;;;;37.45;20.52;;;;;;;;;;5012145;28;20119;-63
2022/08/15 02:17:13;;;;;;;33.72;20.65;;;;;;;;;;5012492;28;20096;-62
2022/08/15 02:19:41;;;;;;;29.52;19.52;;;;;;;;;;5012284;28;20048;-63
2022/08/15 02:22:09;;;;;;;31.17;18.88;;;;;;;;;;5012315;28;20025;-62
2022/08/15 02:24:39;;;;;;;29.77;18.13;;;;;;;;;;5014689;28;20034;-63
2022/08/15 02:27:07;;;;;;;31.02;17.77;;;;;;;;;;5011306;28;20074;-63
2022/08/15 02:29:35;;;;;;;28.40;18.00;;;;;;;;;;5011631;28;20018;-63
2022/08/15 02:32:07;;;;;;;24.73;17.25;;;;;;;;;;5019162;28;20029;-61
2022/08/15 02:34:34;;;;;;;28.02;16.38;;;;;;;;;;5021752;28;20025;-63
2022/08/15 02:37:03;;;;;;;24.13;15.65;;;;;;;;;;5027702;28;20029;-63
2022/08/15 02:39:30;;;;;;;23.73;15.45;;;;;;;;;;5032098;28;20483;-63
2022/08/15 02:41:57;;;;;;;22.58;15.38;;;;;;;;;;5019975;28;20538;-63
2022/08/15 02:44:23;;;;;;;26.10;15.27;;;;;;;;;;5015027;28;20057;-61
2022/08/15 02:46:52;;;;;;;25.10;15.43;;;;;;;;;;5016796;28;20117;-61
2022/08/15 02:49:20;;;;;;;20.55;13.95;;;;;;;;;;5016286;28;20430;-62
2022/08/15 02:51:48;;;;;;;21.17;14.48;;;;;;;;;;5018561;28;20364;-62
2022/08/15 02:54:15;;;;;;;23.13;13.32;;;;;;;;;;5014910;28;20044;-63
2022/08/15 02:56:42;;;;;;;21.52;13.45;;;;;;;;;;5017873;28;20113;-62
2022/08/15 02:59:10;;;;;;;17.80;12.65;;;;;;;;;;5017279;28;20018;-62
2022/08/15 03:01:38;;;;;;;19.17;13.15;;;;;;;;;;5016385;28;20383;-62
2022/08/15 03:04:07;;;;;;;21.70;13.80;;;;;;;;;;5017504;28;20029;-62
2022/08/15 03:06:35;;;;;;;17.65;12.93;;;;;;;;;;5025005;28;20475;-62
2022/08/15 03:09:06;;;;;;;19.42;11.98;;;;;;;;;;5032652;28;20025;-62
2022/08/15 03:11:34;;;;;;;21.48;12.77;;;;;;;;;;5032577;28;20021;-62
2022/08/15 03:14:01;;;;;;;19.05;12.57;;;;;;;;;;5032084;28;20026;-62
2022/08/15 03:16:28;;;;;;;17.83;12.25;;;;;;;;;;5032410;28;20022;-62
2022/08/15 03:18:56;;;;;;;22.73;12.90;;;;;;;;;;5032249;28;20102;-63
2022/08/15 03:21:23;;;;;;;24.33;12.65;;;;;;;;;;5029617;28;20048;-62
2022/08/15 03:23:50;;;;;;;20.17;12.15;;;;;;;;;;5031861;28;20049;-62
2022/08/15 03:26:22;;;;;;;16.70;11.90;;;;;;;;;;5031462;28;20080;-62
2022/08/15 03:28:49;;;;;;;19.55;12.23;;;;;;;;;;5031743;28;20368;-62
2022/08/15 03:31:16;;;;;;;21.73;11.90;;;;;;;;;;5031270;28;20025;-62
2022/08/15 03:33:46;;;;;;;18.08;12.10;;;;;;;;;;5031258;28;20077;-62
2022/08/15 03:36:15;;;;;;;16.90;11.00;;;;;;;;;;5031112;28;20028;-62
2022/08/15 03:38:42;;;;;;;19.30;11.52;;;;;;;;;;5031027;28;20037;-62
2022/08/15 03:41:10;;;;;;;20.63;11.60;;;;;;;;;;5028356;28;20032;-63
2022/08/15 03:43:38;;;;;;;16.95;10.93;;;;;;;;;;5031110;28;20766;-62
2022/08/15 03:46:07;;;;;;;15.00;10.88;;;;;;;;;;5030925;28;20033;-62
2022/08/15 03:48:37;;;;;;;17.67;11.02;;;;;;;;;;5030891;28;20102;-62
2022/08/15 03:51:05;;;;;;;17.52;10.10;;;;;;;;;;5030616;28;20049;-63
2022/08/15 03:53:33;;;;;;;16.05;10.43;;;;;;;;;;5030939;28;20029;-62
2022/08/15 03:56:01;;;;;;;16.00;10.60;;;;;;;;;;5030981;28;20018;-62
2022/08/15 03:58:29;;;;;;;16.70;9.88;;;;;;;;;;5030494;28;20506;-62
2022/08/15 04:00:58;;;;;;;16.73;10.95;;;;;;;;;;5030929;28;20419;-62
2022/08/15 04:03:28;;;;;;;21.50;11.00;;;;;;;;;;5030681;28;20025;-63
2022/08/15 04:05:57;;;;;;;16.15;9.70;;;;;;;;;;5030489;28;20032;-62
2022/08/15 04:08:25;;;;;;;17.60;9.98;;;;;;;;;;5030698;28;20036;-62
2022/08/15 04:10:53;;;;;;;15.00;9.75;;;;;;;;;;5030746;28;20018;-62
2022/08/15 04:13:25;;;;;;;15.80;9.75;;;;;;;;;;5030458;28;20057;-62
2022/08/15 04:15:58;;;;;;;13.50;9.25;;;;;;;;;;5030745;28;20056;-62
2022/08/15 04:18:25;;;;;;;15.65;9.80;;;;;;;;;;5030487;28;20394;-63
2022/08/15 04:20:54;;;;;;;17.40;9.70;;;;;;;;;;5030775;28;20079;-62
2022/08/15 04:23:21;;;;;;;15.27;9.90;;;;;;;;;;5030630;28;20022;-62
2022/08/15 04:25:48;;;;;;;15.60;9.38;;;;;;;;;;5029184;28;20104;-62
2022/08/15 04:28:17;;;;;;;15.95;8.98;;;;;;;;;;5031294;28;20051;-62
2022/08/15 04:30:45;;;;;;;15.68;8.88;;;;;;;;;;5032087;28;20100;-62
2022/08/15 04:33:16;;;;;;;13.15;8.30;;;;;;;;;;5032086;28;20456;-62
2022/08/15 04:35:45;;;;;;;15.43;8.80;;;;;;;;;;5018891;28;20029;-62
2022/08/15 04:38:12;;;;;;;14.05;8.13;;;;;;;;;;5031946;28;20431;-62
2022/08/15 04:40:40;;;;;;;15.50;8.20;;;;;;;;;;5025187;28;20103;-63
2022/08/15 04:43:07;;;;;;;12.95;8.43;;;;;;;;;;5031480;28;20084;-62
2022/08/15 04:45:35;;;;;;;13.75;7.60;;;;;;;;;;5031479;28;20064;-62
2022/08/15 04:48:03;;;;;;;12.05;7.30;;;;;;;;;;5031939;28;20072;-61
2022/08/15 04:50:31;;;;;;;16.85;8.50;;;;;;;;;;5032197;28;20029;-62
2022/08/15 04:52:59;;;;;;;16.95;8.98;;;;;;;;;;5032056;28;20506;-62
2022/08/15 04:55:26;;;;;;;15.52;8.75;;;;;;;;;;5032108;28;20032;-62
2022/08/15 04:57:54;;;;;;;21.98;8.63;;;;;;;;;;5031494;28;20462;-62
2022/08/15 05:00:22;;;;;;;21.00;7.70;;;;;;;;;;5031923;28;20032;-62
2022/08/15 05:03:00;;;;;;;24.65;7.75;;;;;;;;;;5031970;28;20018;-62
2022/08/15 05:05:27;;;;;;;25.58;7.47;;;;;;;;;;5031797;28;20025;-62
2022/08/15 05:07:54;;;;;;;17.45;6.82;;;;;;;;;;5031893;28;20052;-62
2022/08/15 05:10:21;;;;;;;38.97;6.93;;;;;;;;;;5032157;28;20028;-62
2022/08/15 05:12:48;;;;;;;15.40;5.65;;;;;;;;;;5031868;28;20026;-62
2022/08/15 05:15:17;;;;;;;13.77;5.28;;;;;;;;;;5031738;28;20095;-62
2022/08/15 05:17:45;;;;;;;15.27;4.95;;;;;;;;;;5031651;28;20507;-62
2022/08/15 05:20:13;;;;;;;17.42;5.10;;;;;;;;;;5031745;28;20030;-62
2022/08/15 05:22:57;;;;;;;14.75;4.88;;;;;;;;;;5031922;28;20105;-62
2022/08/15 05:25:24;;;;;;;13.88;4.80;;;;;;;;;;5033125;28;20486;-62
2022/08/15 05:27:52;;;;;;;18.15;4.65;;;;;;;;;;5035206;28;20057;-62
2022/08/15 05:30:19;;;;;;;11.07;4.35;;;;;;;;;;5035349;28;20481;-62
2022/08/15 05:32:47;;;;;;;11.25;4.32;;;;;;;;;;5035221;28;20080;-62
2022/08/15 05:35:15;;;;;;;10.38;3.67;;;;;;;;;;5035234;28;20014;-62
2022/08/15 05:37:44;;;;;;;9.15;3.33;;;;;;;;;;5035168;28;20026;-62
2022/08/15 05:40:11;;;;;;;9.00;3.83;;;;;;;;;;5035054;28;20065;-62
2022/08/15 05:42:43;;;;;;;6.72;3.22;;;;;;;;;;5035002;28;20029;-62
2022/08/15 05:45:11;;;;;;;;;;;;;;;;;;5035355;28;20640;-62
2022/08/15 05:47:43;;;;;;;7.95;3.13;;;;;;;;;;5034906;28;20271;-62
2022/08/15 05:50:10;;;;;;;;;;;;;;;;;;5035548;28;20037;-62
2022/08/15 05:52:52;;;;;;;11.80;3.13;;;;;;;;;;5034878;28;19920;-62
2022/08/15 05:55:19;;;;;;;6.38;2.47;;;;;;;;;;5034943;28;20041;-62
2022/08/15 05:58:06;;;;;;;6.65;2.53;;;;;;;;;;5034918;28;20064;-62
2022/08/15 06:00:33;;;;;;;6.65;2.33;;;;;;;;;;5034879;28;20030;-62
2022/08/15 06:03:14;;;;;;;4.70;2.22;;;;;;;;;;5030719;28;20376;-62
2022/08/15 06:05:44;;;;;;;3.72;2.10;;;;;;;;;;5034642;28;20079;-62
2022/08/15 06:08:18;;;;;;;7.20;2.40;;;;;;;;;;5034704;28;20026;-62
2022/08/15 06:10:50;;;;;;;3.00;1.80;;;;;;;;;;5034740;28;20026;-62
2022/08/15 06:13:29;;;;;;;7.93;1.77;;;;;;;;;;5034471;28;20037;-62
2022/08/15 06:15:56;;;;;;;7.65;1.85;;;;;;;;;;5034695;28;20125;-62
2022/08/15 06:18:23;;;;;;;4.47;1.60;;;;;;;;;;5034461;28;20021;-61
2022/08/15 06:20:50;;;;;;;7.18;1.83;;;;;;;;;;5034201;28;20100;-62
2022/08/15 06:23:27;;;;;;;6.28;1.55;;;;;;;;;;5034299;28;20552;-62
2022/08/15 06:26:07;;;;;;;6.20;1.50;;;;;;;;;;5034080;28;20522;-62
2022/08/15 06:28:35;;;;;;;4.63;1.33;;;;;;;;;;4994837;28;20496;-62
2022/08/15 06:31:07;;;;;;;9.52;1.70;;;;;;;;;;4994992;28;20026;-62
2022/08/15 06:33:40;;;;;;;8.95;1.42;;;;;;;;;;4994764;28;20061;-62
2022/08/15 06:36:22;;;;;;;4.80;1.20;;;;;;;;;;4994649;28;20030;-62
2022/08/15 06:39:06;;;;;;;3.20;1.67;;;;;;;;;;4994733;28;20480;-62
2022/08/15 06:41:53;;;;;;;3.00;1.25;;;;;;;;;;4993424;28;20042;-62
2022/08/15 06:44:20;;;;;;;6.38;1.00;;;;;;;;;;4980262;28;20061;-62
2022/08/15 06:46:48;;;;;;;3.90;1.27;;;;;;;;;;4994492;28;20026;-62
2022/08/15 06:49:19;;;;;;;4.28;1.42;;;;;;;;;;4994562;28;20388;-62
2022/08/15 06:51:47;;;;;;;3.05;1.10;;;;;;;;;;4994418;28;20030;-62
2022/08/15 06:54:35;;;;;;;4.05;1.25;;;;;;;;;;4994361;28;20484;-62
2022/08/15 06:57:20;;;;;;;3.35;0.95;;;;;;;;;;4994040;28;20092;-62
2022/08/15 07:00:04;;;;;;;4.88;1.08;;;;;;;;;;4994272;28;20484;-62
2022/08/15 07:02:49;;;;;;;2.90;1.45;;;;;;;;;;4994313;28;20029;-61
2022/08/15 07:05:22;;;;;;;1.88;0.90;;;;;;;;;;4994189;28;20031;-62
2022/08/15 07:07:49;;;;;;;2.25;0.98;;;;;;;;;;4994214;28;20499;-62
2022/08/15 07:10:18;;;;;;;1.23;0.70;;;;;;;;;;4994177;28;20031;-62
2022/08/15 07:12:52;;;;;;;2.33;1.00;;;;;;;;;;4994190;28;20034;-62
2022/08/15 07:15:27;;;;;;;4.75;1.10;;;;;;;;;;4993964;28;20052;-61
2022/08/15 07:17:58;;;;;;;1.15;0.70;;;;;;;;;;4994000;28;20057;-62
2022/08/15 07:20:25;;;;;;;6.13;0.90;;;;;;;;;;4993870;28;20073;-62
2022/08/15 07:22:52;;;;;;;3.63;0.90;;;;;;;;;;4994054;28;20034;-62
2022/08/15 07:25:24;;;;;;;2.33;0.70;;;;;;;;;;4993760;28;20088;-62
2022/08/15 07:28:03;;;;;;;3.67;0.80;;;;;;;;;;5025009;28;20045;-62
2022/08/15 07:30:52;;;;;;;4.70;0.77;;;;;;;;;;5033197;28;20028;-62
2022/08/15 07:33:30;;;;;;;4.65;0.70;;;;;;;;;;5033099;28;20495;-62
2022/08/15 07:36:03;;;;;;;1.30;0.55;;;;;;;;;;5032928;28;20099;-62
2022/08/15 07:38:32;;;;;;;2.08;0.60;;;;;;;;;;5032856;28;20104;-62
2022/08/15 07:41:17;;;;;;;5.80;0.70;;;;;;;;;;5032862;28;20033;-61
2022/08/15 07:43:45;;;;;;;4.53;0.70;;;;;;;;;;5032922;28;20065;-61
2022/08/15 07:46:15;;;;;;;1.40;0.60;;;;;;;;;;5032684;28;20367;-61
2022/08/15 07:48:43;;;;;;;2.00;0.70;;;;;;;;;;5032404;28;20088;-61
2022/08/15 07:51:23;;;;;;;2.40;0.65;;;;;;;;;;5032628;28;20113;-62
2022/08/15 07:53:56;;;;;;;1.35;0.40;;;;;;;;;;5032756;28;20037;-62
2022/08/15 07:56:24;;;;;;;1.35;0.50;;;;;;;;;;5032655;28;20410;-62
2022/08/15 07:58:57;;;;;;;1.70;0.50;;;;;;;;;;5032757;28;20092;-62
2022/08/15 08:01:29;;;;;;;2.88;0.50;;;;;;;;;;5032628;28;20025;-62
2022/08/15 08:03:59;;;;;;;0.93;0.40;;;;;;;;;;5031916;28;20033;-62
2022/08/15 08:06:48;;;;;;;1.67;0.40;;;;;;;;;;5032307;28;20364;-62
2022/08/15 08:09:15;;;;;;;1.52;0.47;;;;;;;;;;5032502;28;20095;-62
2022/08/15 08:11:54;;;;;;;0.77;0.45;;;;;;;;;;5032524;28;20167;-62
2022/08/15 08:14:39;;;;;;;2.55;0.60;;;;;;;;;;5032410;28;20044;-62
2022/08/15 08:17:06;;;;;;;2.45;0.40;;;;;;;;;;5032523;28;20112;-62
2022/08/15 08:19:57;;;;;;;0.90;0.40;;;;;;;;;;5032434;28;20025;-61
2022/08/15 08:22:28;;;;;;;2.97;0.50;;;;;;;;;;4987355;28;20086;-61
2022/08/15 08:25:10;;;;;;;3.33;0.50;;;;;;;;;;5032253;28;20064;-62
2022/08/15 08:27:40;;;;;;;1.30;0.50;;;;;;;;;;5032308;28;20411;-62
2022/08/15 08:30:19;;;;;;;2.53;0.60;;;;;;;;;;5032144;28;20522;-62
2022/08/15 08:32:46;;;;;;;3.55;0.50;;;;;;;;;;5032162;28;20063;-62
2022/08/15 08:35:25;;;;;;;1.30;0.50;;;;;;;;;;5032259;28;20033;-62
2022/08/15 08:38:10;;;;;;;2.83;0.60;;;;;;;;;;5032406;28;20037;-62
2022/08/15 08:43:49;;;;;;;4.28;0.80;;;;;;;;;;5032403;28;20080;-62
2022/08/15 08:46:37;;;;;;;2.47;0.93;;;;;;;;;;5032350;28;20483;-62
2022/08/15 08:49:11;;;;;;;2.33;1.00;;;;;;;;;;5032038;28;20025;-62
2022/08/15 08:51:43;;;;;;;1.33;1.00;;;;;;;;;;5032118;28;20039;-62
2022/08/15 08:54:29;;;;;;;2.42;0.95;;;;;;;;;;5032244;28;20033;-62
2022/08/15 08:57:00;;;;;;;1.85;0.80;;;;;;;;;;5031977;28;20041;-62
2022/08/15 08:59:34;;;;;;;3.00;1.05;;;;;;;;;;5032209;28;20025;-62
2022/08/15 09:02:10;;;;;;;1.52;0.88;;;;;;;;;;5036065;28;20033;-62
2022/08/15 09:04:40;;;;;;;2.70;0.90;;;;;;;;;;5036203;28;20036;-61
2022/08/15 09:07:08;;;;;;;1.38;0.88;;;;;;;;;;5035883;28;20033;-61
2022/08/15 09:09:38;;;;;;;1.20;0.80;;;;;;;;;;5035859;28;20484;-62
2022/08/15 09:14:55;;;;;;;1.58;0.95;;;;;;;;;;5035898;28;20107;-61
2022/08/15 09:17:25;;;;;;;2.78;1.17;;;;;;;;;;5017798;28;20440;-61
2022/08/15 09:20:01;;;;;;;1.75;1.02;;;;;;;;;;5035578;28;20025;-62
2022/08/15 09:22:28;;;;;;;2.17;1.00;;;;;;;;;;5035632;28;20032;-62
2022/08/15 09:24:55;;;;;;;2.15;0.93;;;;;;;;;;5035643;28;20058;-61
2022/08/15 09:27:25;;;;;;;2.42;1.20;;;;;;;;;;5035333;28;20059;-62
2022/08/15 09:29:58;;;;;;;1.85;0.90;;;;;;;;;;5035426;28;20028;-62
2022/08/15 09:32:24;;;;;;;;;;;;;;;;;;5035744;28;20036;-61
2022/08/15 09:35:10;;;;;;;1.95;1.10;;;;;;;;;;5035147;28;19909;-61
2022/08/15 09:37:36;;;;;;;2.65;1.20;;;;;;;;;;5035362;28;20026;-61
2022/08/15 09:40:17;;;;;;;2.92;1.13;;;;;;;;;;5035286;28;20498;-62
2022/08/15 09:43:00;;;;;;;1.95;1.23;;;;;;;;;;5035199;28;20044;-62
2022/08/15 09:45:34;;;;;;;2.80;1.23;;;;;;;;;;5035129;28;20022;-62
2022/08/15 09:48:19;;;;;;;3.55;1.15;;;;;;;;;;5035158;28;20361;-61
2022/08/15 09:50:57;;;;;;;1.85;1.00;;;;;;;;;;5035003;28;20036;-62
2022/08/15 09:53:45;;;;;;;2.67;1.30;;;;;;;;;;5017170;28;20449;-61
2022/08/15 09:56:12;;;;;;;2.47;1.27;;;;;;;;;;5035019;28;20025;-62
2022/08/15 09:58:51;;;;;;;2.33;1.10;;;;;;;;;;5034896;28;20083;-62
2022/08/15 10:01:21;;;;;;;2.45;1.10;;;;;;;;;;5034735;28;20036;-61
2022/08/15 10:03:51;;;;;;;1.25;0.80;;;;;;;;;;5034951;28;20083;-62
2022/08/15 10:06:22;;;;;;;1.80;0.95;;;;;;;;;;5034717;28;20484;-62
2022/08/15 10:08:54;;;;;;;1.90;1.00;;;;;;;;;;5034688;28;20029;-61
2022/08/15 10:11:46;;;;;;;1.10;0.77;;;;;;;;;;5034472;28;20391;-61
2022/08/15 10:14:22;;;;;;;2.95;0.80;;;;;;;;;;5033343;28;20388;-61
2022/08/15 10:16:52;;;;;;;1.85;0.60;;;;;;;;;;5034461;28;20108;-62
2022/08/15 10:19:29;;;;;;;1.40;0.82;;;;;;;;;;5034481;28;20116;-62
2022/08/15 10:21:58;;;;;;;1.80;0.90;;;;;;;;;;5034382;28;20030;-61
2022/08/15 10:24:28;;;;;;;1.60;0.90;;;;;;;;;;5034499;28;20041;-62
2022/08/15 10:27:07;;;;;;;1.80;0.82;;;;;;;;;;5034039;28;20050;-62
2022/08/15 10:29:35;;;;;;;1.60;0.80;;;;;;;;;;5034928;28;20467;-62
2022/08/15 10:32:03;;;;;;;1.38;0.70;;;;;;;;;;5034317;28;20443;-62
2022/08/15 10:34:37;;;;;;;0.93;0.70;;;;;;;;;;5033874;28;20025;-61
2022/08/15 10:37:16;;;;;;;2.38;1.20;;;;;;;;;;5034025;28;20040;-62
2022/08/15 10:39:43;;;;;;;1.67;0.70;;;;;;;;;;5034232;28;20030;-61
2022/08/15 10:42:29;;;;;;;1.10;0.80;;;;;;;;;;5034198;28;20556;-61
2022/08/15 10:45:03;;;;;;;1.15;0.70;;;;;;;;;;5033951;28;20033;-62
2022/08/15 10:47:31;;;;;;;1.75;0.90;;;;;;;;;;5033944;28;20025;-62
2022/08/15 10:50:03;;;;;;;1.45;0.68;;;;;;;;;;5033888;28;20083;-62
2022/08/15 10:52:33;;;;;;;1.63;0.80;;;;;;;;;;5033925;28;20041;-61
2022/08/15 10:55:21;;;;;;;0.93;0.57;;;;;;;;;;5033760;28;20040;-61
2022/08/15 10:57:55;;;;;;;1.70;0.73;;;;;;;;;;5033877;28;20475;-61
2022/08/15 11:00:38;;;;;;;1.27;0.70;;;;;;;;;;5034015;28;20038;-62
2022/08/15 11:03:12;;;;;;;1.33;0.80;;;;;;;;;;5033609;28;20029;-61
2022/08/15 11:05:40;;;;;;;1.10;0.70;;;;;;;;;;5033550;28;20448;-62
2022/08/15 11:08:12;;;;;;;0.90;0.60;;;;;;;;;;5033611;28;20033;-62
2022/08/15 11:10:39;;;;;;;2.85;0.70;;;;;;;;;;5033414;28;20483;-61
2022/08/15 11:13:08;;;;;;;1.10;0.65;;;;;;;;;;5033483;28;20026;-62
2022/08/15 11:15:49;;;;;;;1.15;0.68;;;;;;;;;;5033310;28;20061;-62
2022/08/15 11:18:20;;;;;;;2.65;0.57;;;;;;;;;;5033419;28;20029;-62
2022/08/15 11:20:52;;;;;;;0.85;0.70;;;;;;;;;;5033406;28;20438;-61
2022/08/15 11:23:31;;;;;;;1.60;0.82;;;;;;;;;;5032588;28;20103;-62
2022/08/15 11:25:58;;;;;;;1.42;0.82;;;;;;;;;;5033101;28;20120;-62
2022/08/15 11:28:28;;;;;;;2.35;0.70;;;;;;;;;;5033295;28;20101;-62
2022/08/15 11:31:00;;;;;;;1.23;0.60;;;;;;;;;;5033178;28;20033;-62
2022/08/15 11:33:30;;;;;;;2.35;0.95;;;;;;;;;;5033193;28;20033;-62
2022/08/15 11:36:23;;;;;;;0.85;0.50;;;;;;;;;;5033186;28;20029;-61
2022/08/15 11:38:58;;;;;;;1.15;0.90;;;;;;;;;;5028915;28;20033;-62
2022/08/15 11:41:27;;;;;;;2.60;0.70;;;;;;;;;;5033003;28;20447;-62
2022/08/15 11:43:57;;;;;;;1.75;0.82;;;;;;;;;;5032943;28;20602;-61
2022/08/15 11:46:24;;;;;;;1.20;0.70;;;;;;;;;;5032227;28;20061;-61
2022/08/15 11:48:56;;;;;;;0.93;0.68;;;;;;;;;;5030060;28;20037;-62
2022/08/15 11:51:24;;;;;;;1.20;0.50;;;;;;;;;;5031268;28;20040;-62
2022/08/15 11:54:03;;;;;;;0.98;0.70;;;;;;;;;;5012550;28;20045;-62
2022/08/15 11:56:46;;;;;;;1.25;0.70;;;;;;;;;;5025243;28;20116;-62
2022/08/15 11:59:33;;;;;;;1.05;0.70;;;;;;;;;;5014946;28;20036;-62
2022/08/15 12:02:05;;;;;;;0.73;0.60;;;;;;;;;;5029149;28;20372;-62
2022/08/15 12:04:33;;;;;;;0.57;0.50;;;;;;;;;;5031364;28;20060;-62
2022/08/15 12:07:27;;;;;;;2.67;0.73;;;;;;;;;;5013365;28;20491;-61
2022/08/15 12:09:56;;;;;;;1.20;0.50;;;;;;;;;;5028707;28;20094;-62
2022/08/15 12:12:24;;;;;;;2.33;0.50;;;;;;;;;;5031102;28;20029;-62
2022/08/15 12:14:51;;;;;;;0.88;0.50;;;;;;;;;;5030999;28;20041;-62
2022/08/15 12:17:28;;;;;;;2.90;0.65;;;;;;;;;;5031018;28;20037;-63
2022/08/15 12:19:56;;;;;;;7.00;0.80;;;;;;;;;;5030333;28;20075;-61
2022/08/15 12:22:30;;;;;;;5.32;0.95;;;;;;;;;;5031049;28;20037;-62
2022/08/15 12:24:57;;;;;;;5.85;0.90;;;;;;;;;;5010501;28;20033;-63
2022/08/15 12:27:24;;;;;;;10.95;1.20;;;;;;;;;;5030687;28;20048;-62
2022/08/15 12:29:51;;;;;;;5.05;1.10;;;;;;;;;;5029834;28;20376;-63
2022/08/15 12:32:19;;;;;;;4.85;1.17;;;;;;;;;;5028052;28;20112;-64
2022/08/15 12:34:48;;;;;;;6.75;1.00;;;;;;;;;;5032840;28;20080;-62
2022/08/15 12:37:19;;;;;;;6.22;0.95;;;;;;;;;;5017108;28;20383;-64
2022/08/15 12:39:50;;;;;;;10.02;1.38;;;;;;;;;;5034927;28;20033;-62
2022/08/15 12:42:20;;;;;;;8.35;1.13;;;;;;;;;;5032356;28;20395;-64
2022/08/15 12:44:48;;;;;;;11.70;1.15;;;;;;;;;;5034722;28;20522;-61
2022/08/15 12:47:15;;;;;;;8.25;1.20;;;;;;;;;;5034856;28;20029;-62
2022/08/15 12:49:42;;;;;;;5.10;1.10;;;;;;;;;;5034825;28;20041;-62
2022/08/15 12:52:09;;;;;;;12.63;1.30;;;;;;;;;;5034339;28;20029;-62
2022/08/15 12:54:36;;;;;;;7.05;1.60;;;;;;;;;;5034875;28;20391;-61
2022/08/15 12:57:03;;;;;;;8.52;1.00;;;;;;;;;;5035749;28;20043;-61
2022/08/15 12:59:31;;;;;;;7.53;1.10;;;;;;;;;;5035848;28;20029;-61
2022/08/15 13:01:58;;;;;;;11.27;1.00;;;;;;;;;;5034760;28;20046;-62
2022/08/15 13:04:26;;;;;;;31.15;2.20;;;;;;;;;;5035779;28;20387;-62
2022/08/15 13:06:57;;;;;;;10.95;1.30;;;;;;;;;;5035960;28;20108;-62
2022/08/15 13:09:30;;;;;;;15.35;1.92;;;;;;;;;;5035326;28;20103;-61
2022/08/15 13:12:00;;;;;;;13.90;1.60;;;;;;;;;;5035654;28;20037;-61
2022/08/15 13:14:27;;;;;;;12.48;1.75;;;;;;;;;;5035342;28;20048;-61
2022/08/15 13:16:54;;;;;;;21.83;2.03;;;;;;;;;;5035805;28;20053;-60
2022/08/15 13:19:23;;;;;;;15.02;1.80;;;;;;;;;;5035646;28;20029;-61
2022/08/15 13:24:37;;;;;;;28.98;1.90;;;;;;;;;;5035800;28;20041;-60
2022/08/15 13:27:05;;;;;;;22.15;2.35;;;;;;;;;;5035464;28;20046;-61
2022/08/15 13:29:32;;;;;;;26.25;2.17;;;;;;;;;;5035390;28;20400;-61
2022/08/15 13:32:00;;;;;;;28.67;2.42;;;;;;;;;;5035504;28;20076;-60
2022/08/15 13:34:31;;;;;;;19.83;2.20;;;;;;;;;;5035120;28;20041;-60
2022/08/15 13:36:59;;;;;;;24.05;2.22;;;;;;;;;;5035241;28;20041;-60
2022/08/15 13:39:36;;;;;;;17.20;2.10;;;;;;;;;;5035305;28;20383;-61
2022/08/15 13:42:03;;;;;;;17.05;2.10;;;;;;;;;;5035094;28;20033;-60
2022/08/15 13:44:31;;;;;;;27.15;2.50;;;;;;;;;;5035160;28;20033;-60
2022/08/15 13:46:59;;;;;;;142.35;7.65;;;;;;;;;;5034257;28;20033;-60
2022/08/15 13:49:26;;;;;;;27.55;2.67;;;;;;;;;;5035149;28;20021;-60
2022/08/15 13:51:56;;;;;;;33.03;2.42;;;;;;;;;;5035147;28;20034;-60
2022/08/15 13:54:24;;;;;;;27.95;2.40;;;;;;;;;;5034876;28;20056;-60
2022/08/15 13:56:51;;;;;;;27.15;2.60;;;;;;;;;;5035005;28;20388;-60
2022/08/15 13:59:19;;;;;;;18.13;1.77;;;;;;;;;;5035012;28;20035;-60
2022/08/15 14:01:48;;;;;;;31.15;2.35;;;;;;;;;;5034806;28;20025;-60
2022/08/15 14:04:17;;;;;;;23.77;2.08;;;;;;;;;;5034770;28;20133;-60
2022/08/15 14:06:44;;;;;;;20.80;2.05;;;;;;;;;;5016992;28;20383;-60
2022/08/15 14:09:13;;;;;;;19.98;2.28;;;;;;;;;;5034743;28;20041;-61
2022/08/15 14:11:43;;;;;;;29.92;2.50;;;;;;;;;;5034771;28;20042;-60
2022/08/15 14:14:10;;;;;;;17.85;1.98;;;;;;;;;;5034606;28;20545;-60
2022/08/15 14:16:39;;;;;;;19.75;2.22;;;;;;;;;;5034408;28;20041;-60
2022/08/15 14:19:07;;;;;;;24.63;2.22;;;;;;;;;;5034428;28;20057;-60
2022/08/15 14:21:36;;;;;;;21.00;2.13;;;;;;;;;;5034331;28;20029;-60
2022/08/15 14:24:04;;;;;;;24.55;2.42;;;;;;;;;;5034535;28;20025;-60
2022/08/15 14:26:33;;;;;;;31.15;3.28;;;;;;;;;;5034261;28;20103;-61
2022/08/15 14:29:01;;;;;;;24.00;2.50;;;;;;;;;;5034473;28;20038;-60
2022/08/15 14:31:31;;;;;;;20.85;2.55;;;;;;;;;;5034287;28;20479;-60
2022/08/15 14:33:58;;;;;;;26.88;2.28;;;;;;;;;;5034195;28;20041;-60
2022/08/15 14:36:26;;;;;;;23.70;2.20;;;;;;;;;;5034161;28;20036;-60
2022/08/15 14:38:58;;;;;;;27.90;2.83;;;;;;;;;;5034028;28;20368;-60
2022/08/15 14:41:25;;;;;;;25.02;2.45;;;;;;;;;;5027029;28;20041;-60
2022/08/15 14:43:52;;;;;;;28.60;2.50;;;;;;;;;;5014335;28;20095;-60
2022/08/15 14:46:20;;;;;;;23.48;2.53;;;;;;;;;;5014283;28;20021;-60
2022/08/15 14:48:47;;;;;;;24.40;2.95;;;;;;;;;;5014165;28;20480;-60
2022/08/15 14:51:16;;;;;;;33.45;2.70;;;;;;;;;;5014128;28;20488;-60
2022/08/15 14:53:43;;;;;;;21.58;2.75;;;;;;;;;;5014161;28;20064;-60
2022/08/15 14:56:10;;;;;;;28.75;3.35;;;;;;;;;;5014000;28;20042;-60
2022/08/15 14:58:37;;;;;;;49.92;3.28;;;;;;;;;;5013858;28;20048;-60
2022/08/15 15:01:04;;;;;;;18.45;2.75;;;;;;;;;;5014037;28;20026;-60
2022/08/15 15:03:32;;;;;;;23.92;3.22;;;;;;;;;;5014084;28;20033;-60